sensor_id;sensor_type;location;lat;lon;timestamp;pressure;altitude;pressure_sealevel;temperature;humidity
71976;BME280;60680;52.182;5.398;2022-11-20T00:03:35;101447.19;;;-1.47;81.42
71976;BME280;60680;52.182;5.398;2022-11-20T00:06:03;101442.94;;;-1.45;81.16
71976;BME280;60680;52.182;5.398;2022-11-20T00:08:29;101441.22;;;-1.48;80.71
71976;BME280;60680;52.182;5.398;2022-11-20T00:10:56;101440.38;;;-1.50;80.55
71976;BME280;60680;52.182;5.398;2022-11-20T00:13:22;101438.59;;;-1.57;80.76
71976;BME280;60680;52.182;5.398;2022-11-20T00:15:56;101441.94;;;-1.62;81.24
71976;BME280;60680;52.182;5.398;2022-11-20T00:18:23;101434.22;;;-1.70;80.26
71976;BME280;60680;52.182;5.398;2022-11-20T00:20:50;101437.59;;;-1.73;81.46
71976;BME280;60680;52.182;5.398;2022-11-20T00:23:16;101429.06;;;-1.75;81.12
71976;BME280;60680;52.182;5.398;2022-11-20T00:25:43;101438.44;;;-1.72;80.91
71976;BME280;60680;52.182;5.398;2022-11-20T00:28:09;101435.91;;;-1.74;80.23
71976;BME280;60680;52.182;5.398;2022-11-20T00:30:36;101450.31;;;-1.74;80.79
71976;BME280;60680;52.182;5.398;2022-11-20T00:33:02;101443.53;;;-1.75;80.97
71976;BME280;60680;52.182;5.398;2022-11-20T00:35:29;101440.97;;;-1.75;80.93
71976;BME280;60680;52.182;5.398;2022-11-20T00:37:56;101433.31;;;-1.75;81.41
71976;BME280;60680;52.182;5.398;2022-11-20T00:40:22;101435.03;;;-1.76;80.93
71976;BME280;60680;52.182;5.398;2022-11-20T00:42:48;101435.03;;;-1.74;81.35
71976;BME280;60680;52.182;5.398;2022-11-20T00:45:15;101436.72;;;-1.76;81.59
71976;BME280;60680;52.182;5.398;2022-11-20T00:47:41;101422.22;;;-1.79;82.07
71976;BME280;60680;52.182;5.398;2022-11-20T00:50:08;101427.34;;;-1.77;81.89
71976;BME280;60680;52.182;5.398;2022-11-20T00:52:34;101419.72;;;-1.74;82.19
71976;BME280;60680;52.182;5.398;2022-11-20T00:55:01;101419.75;;;-1.71;82.08
71976;BME280;60680;52.182;5.398;2022-11-20T00:57:27;101419.78;;;-1.70;80.73
71976;BME280;60680;52.182;5.398;2022-11-20T00:59:54;101418.03;;;-1.72;80.82
71976;BME280;60680;52.182;5.398;2022-11-20T01:02:20;101408.66;;;-1.76;82.26
71976;BME280;60680;52.182;5.398;2022-11-20T01:04:47;101418.88;;;-1.76;82.00
71976;BME280;60680;52.182;5.398;2022-11-20T01:07:13;101406.94;;;-1.77;81.73
71976;BME280;60680;52.182;5.398;2022-11-20T01:09:40;101403.53;;;-1.78;81.44
71976;BME280;60680;52.182;5.398;2022-11-20T01:12:06;101402.69;;;-1.78;81.90
71976;BME280;60680;52.182;5.398;2022-11-20T01:14:32;101407.81;;;-1.78;81.22
71976;BME280;60680;52.182;5.398;2022-11-20T01:16:59;101408.59;;;-1.81;82.05
71976;BME280;60680;52.182;5.398;2022-11-20T01:19:26;101401.75;;;-1.87;82.03
71976;BME280;60680;52.182;5.398;2022-11-20T01:21:54;101405.13;;;-1.91;81.69
71976;BME280;60680;52.182;5.398;2022-11-20T01:24:21;101402.53;;;-1.94;81.79
71976;BME280;60680;52.182;5.398;2022-11-20T01:26:50;101394.91;;;-1.92;82.09
71976;BME280;60680;52.182;5.398;2022-11-20T01:29:20;101397.44;;;-1.94;81.38
71976;BME280;60680;52.182;5.398;2022-11-20T01:31:47;101393.13;;;-1.98;81.25
71976;BME280;60680;52.182;5.398;2022-11-20T01:34:17;101399.06;;;-2.00;81.39
71976;BME280;60680;52.182;5.398;2022-11-20T01:36:45;101395.63;;;-2.04;82.33
71976;BME280;60680;52.182;5.398;2022-11-20T01:39:20;101393.94;;;-2.02;82.40
71976;BME280;60680;52.182;5.398;2022-11-20T01:41:49;101397.34;;;-2.00;82.99
71976;BME280;60680;52.182;5.398;2022-11-20T01:44:58;101392.25;;;-2.00;82.78
71976;BME280;60680;52.182;5.398;2022-11-20T01:47:33;101404.19;;;-1.99;81.63
71976;BME280;60680;52.182;5.398;2022-11-20T01:50:17;101397.34;;;-2.00;82.54
71976;BME280;60680;52.182;5.398;2022-11-20T01:52:52;101395.63;;;-2.04;81.63
71976;BME280;60680;52.182;5.398;2022-11-20T01:55:24;101393.03;;;-2.07;81.64
71976;BME280;60680;52.182;5.398;2022-11-20T01:57:52;101392.16;;;-2.12;82.56
71976;BME280;60680;52.182;5.398;2022-11-20T02:00:20;101381.03;;;-2.19;82.41
71976;BME280;60680;52.182;5.398;2022-11-20T02:03:03;101385.34;;;-2.13;82.04
71976;BME280;60680;52.182;5.398;2022-11-20T02:05:35;101391.25;;;-2.16;81.61
71976;BME280;60680;52.182;5.398;2022-11-20T02:08:04;101389.50;;;-2.20;82.27
71976;BME280;60680;52.182;5.398;2022-11-20T02:10:32;101388.66;;;-2.20;82.73
71976;BME280;60680;52.182;5.398;2022-11-20T02:12:59;101383.56;;;-2.20;81.96
71976;BME280;60680;52.182;5.398;2022-11-20T02:15:45;101379.31;;;-2.23;82.54
71976;BME280;60680;52.182;5.398;2022-11-20T02:18:14;101378.34;;;-2.30;82.81
71976;BME280;60680;52.182;5.398;2022-11-20T02:20:44;101366.50;;;-2.29;82.11
71976;BME280;60680;52.182;5.398;2022-11-20T02:23:13;101374.13;;;-2.29;82.92
71976;BME280;60680;52.182;5.398;2022-11-20T02:25:41;101380.91;;;-2.30;82.57
71976;BME280;60680;52.182;5.398;2022-11-20T02:28:09;101377.53;;;-2.29;82.66
71976;BME280;60680;52.182;5.398;2022-11-20T02:30:36;101377.53;;;-2.29;82.47
71976;BME280;60680;52.182;5.398;2022-11-20T02:33:02;101387.66;;;-2.32;82.48
71976;BME280;60680;52.182;5.398;2022-11-20T02:38:00;101380.03;;;-2.33;82.51
71976;BME280;60680;52.182;5.398;2022-11-20T02:40:28;101369.84;;;-2.33;82.18
71976;BME280;60680;52.182;5.398;2022-11-20T02:42:56;101370.72;;;-2.31;83.28
71976;BME280;60680;52.182;5.398;2022-11-20T02:45:24;101362.13;;;-2.36;82.17
71976;BME280;60680;52.182;5.398;2022-11-20T02:47:51;101372.25;;;-2.42;82.49
71976;BME280;60680;52.182;5.398;2022-11-20T02:50:18;101361.19;;;-2.46;82.05
71976;BME280;60680;52.182;5.398;2022-11-20T02:52:44;101368.00;;;-2.45;82.95
71976;BME280;60680;52.182;5.398;2022-11-20T02:55:11;101362.03;;;-2.49;82.58
71976;BME280;60680;52.182;5.398;2022-11-20T02:57:37;101357.72;;;-2.53;82.11
71976;BME280;60680;52.182;5.398;2022-11-20T03:00:05;101356.06;;;-2.51;82.68
71976;BME280;60680;52.182;5.398;2022-11-20T03:02:33;101353.53;;;-2.48;83.19
71976;BME280;60680;52.182;5.398;2022-11-20T03:04:59;101346.75;;;-2.49;82.87
71976;BME280;60680;52.182;5.398;2022-11-20T03:07:25;101339.00;;;-2.53;82.99
71976;BME280;60680;52.182;5.398;2022-11-20T03:09:52;101344.09;;;-2.56;83.20
71976;BME280;60680;52.182;5.398;2022-11-20T03:12:18;101344.03;;;-2.61;82.76
71976;BME280;60680;52.182;5.398;2022-11-20T03:14:45;101334.69;;;-2.63;82.21
71976;BME280;60680;52.182;5.398;2022-11-20T03:17:18;101338.91;;;-2.65;82.98
71976;BME280;60680;52.182;5.398;2022-11-20T03:19:44;101332.13;;;-2.63;82.86
71976;BME280;60680;52.182;5.398;2022-11-20T03:22:10;101337.22;;;-2.62;83.79
71976;BME280;60680;52.182;5.398;2022-11-20T03:24:37;101331.31;;;-2.61;83.68
71976;BME280;60680;52.182;5.398;2022-11-20T03:27:03;101335.56;;;-2.60;83.04
71976;BME280;60680;52.182;5.398;2022-11-20T03:29:30;101337.25;;;-2.60;83.67
71976;BME280;60680;52.182;5.398;2022-11-20T03:31:56;101336.38;;;-2.62;83.77
71976;BME280;60680;52.182;5.398;2022-11-20T03:34:23;101333.78;;;-2.67;83.73
71976;BME280;60680;52.182;5.398;2022-11-20T03:36:49;101341.38;;;-2.70;83.97
71976;BME280;60680;52.182;5.398;2022-11-20T03:39:16;101336.25;;;-2.73;82.99
71976;BME280;60680;52.182;5.398;2022-11-20T03:41:42;101333.69;;;-2.73;84.20
71976;BME280;60680;52.182;5.398;2022-11-20T03:44:10;101329.50;;;-2.70;83.13
71976;BME280;60680;52.182;5.398;2022-11-20T03:46:37;101332.94;;;-2.68;82.95
71976;BME280;60680;52.182;5.398;2022-11-20T03:49:04;101324.44;;;-2.67;83.19
71976;BME280;60680;52.182;5.398;2022-11-20T03:51:33;101321.88;;;-2.67;83.61
71976;BME280;60680;52.182;5.398;2022-11-20T03:54:02;101315.09;;;-2.66;82.86
71976;BME280;60680;52.182;5.398;2022-11-20T03:56:31;101316.78;;;-2.68;82.58
71976;BME280;60680;52.182;5.398;2022-11-20T03:58:59;101310.81;;;-2.69;83.41
71976;BME280;60680;52.182;5.398;2022-11-20T04:01:27;101312.47;;;-2.74;82.77
71976;BME280;60680;52.182;5.398;2022-11-20T04:03:55;101312.44;;;-2.77;83.62
71976;BME280;60680;52.182;5.398;2022-11-20T04:06:28;101325.16;;;-2.77;83.20
71976;BME280;60680;52.182;5.398;2022-11-20T04:08:57;101320.06;;;-2.77;82.87
71976;BME280;60680;52.182;5.398;2022-11-20T04:11:28;101309.00;;;-2.80;83.54
71976;BME280;60680;52.182;5.398;2022-11-20T04:14:00;101301.28;;;-2.85;83.90
71976;BME280;60680;52.182;5.398;2022-11-20T04:16:33;101303.78;;;-2.90;83.10
71976;BME280;60680;52.182;5.398;2022-11-20T04:19:01;101298.66;;;-2.91;83.64
71976;BME280;60680;52.182;5.398;2022-11-20T04:21:28;101297.00;;;-2.91;83.43
71976;BME280;60680;52.182;5.398;2022-11-20T04:23:55;101296.94;;;-2.94;83.62
71976;BME280;60680;52.182;5.398;2022-11-20T04:26:24;101297.00;;;-2.91;84.42
71976;BME280;60680;52.182;5.398;2022-11-20T04:28:51;101292.72;;;-2.93;83.63
71976;BME280;60680;52.182;5.398;2022-11-20T04:31:21;101302.00;;;-2.97;83.17
71976;BME280;60680;52.182;5.398;2022-11-20T04:33:48;101307.09;;;-2.97;83.91
71976;BME280;60680;52.182;5.398;2022-11-20T04:36:24;101301.22;;;-2.93;83.65
71976;BME280;60680;52.182;5.398;2022-11-20T04:38:58;101294.41;;;-2.92;83.84
71976;BME280;60680;52.182;5.398;2022-11-20T04:41:27;101294.41;;;-2.95;82.65
71976;BME280;60680;52.182;5.398;2022-11-20T04:43:56;101291.78;;;-3.00;84.10
71976;BME280;60680;52.182;5.398;2022-11-20T04:46:27;101282.41;;;-3.02;83.64
71976;BME280;60680;52.182;5.398;2022-11-20T04:48:53;101280.66;;;-3.07;83.25
71976;BME280;60680;52.182;5.398;2022-11-20T04:51:20;101282.34;;;-3.09;83.90
71976;BME280;60680;52.182;5.398;2022-11-20T04:53:46;101277.25;;;-3.10;83.71
71976;BME280;60680;52.182;5.398;2022-11-20T04:56:13;101283.13;;;-3.13;83.56
71976;BME280;60680;52.182;5.398;2022-11-20T04:58:40;101280.63;;;-3.10;83.48
71976;BME280;60680;52.182;5.398;2022-11-20T05:01:13;101268.78;;;-3.06;84.39
71976;BME280;60680;52.182;5.398;2022-11-20T05:03:41;101271.28;;;-3.11;84.23
71976;BME280;60680;52.182;5.398;2022-11-20T05:06:09;101274.63;;;-3.13;83.61
71976;BME280;60680;52.182;5.398;2022-11-20T05:08:37;101282.31;;;-3.12;84.26
71976;BME280;60680;52.182;5.398;2022-11-20T05:11:09;101270.47;;;-3.10;83.98
71976;BME280;60680;52.182;5.398;2022-11-20T05:13:36;101269.56;;;-3.13;84.20
71976;BME280;60680;52.182;5.398;2022-11-20T05:16:12;101270.38;;;-3.16;83.41
71976;BME280;60680;52.182;5.398;2022-11-20T05:18:40;101264.41;;;-3.18;84.17
71976;BME280;60680;52.182;5.398;2022-11-20T05:21:07;101277.13;;;-3.18;83.74
71976;BME280;60680;52.182;5.398;2022-11-20T05:23:34;101272.88;;;-3.17;84.08
71976;BME280;60680;52.182;5.398;2022-11-20T05:26:01;101261.03;;;-3.15;83.66
71976;BME280;60680;52.182;5.398;2022-11-20T05:28:29;101249.16;;;-3.15;83.94
71976;BME280;60680;52.182;5.398;2022-11-20T05:31:03;101246.66;;;-3.13;84.62
71976;BME280;60680;52.182;5.398;2022-11-20T05:33:29;101240.69;;;-3.15;84.38
71976;BME280;60680;52.182;5.398;2022-11-20T05:35:59;101246.59;;;-3.18;83.88
71976;BME280;60680;52.182;5.398;2022-11-20T05:38:26;101240.66;;;-3.18;84.29
71976;BME280;60680;52.182;5.398;2022-11-20T05:40:52;101227.88;;;-3.21;84.32
71976;BME280;60680;52.182;5.398;2022-11-20T05:43:19;101232.09;;;-3.25;84.49
71976;BME280;60680;52.182;5.398;2022-11-20T05:45:54;101237.13;;;-3.28;84.53
71976;BME280;60680;52.182;5.398;2022-11-20T05:48:20;101243.06;;;-3.28;84.60
71976;BME280;60680;52.182;5.398;2022-11-20T05:50:48;101249.00;;;-3.29;83.52
71976;BME280;60680;52.182;5.398;2022-11-20T05:53:14;101254.91;;;-3.30;84.16
71976;BME280;60680;52.182;5.398;2022-11-20T05:55:41;101267.69;;;-3.26;84.50
71976;BME280;60680;52.182;5.398;2022-11-20T05:58:07;101270.19;;;-3.30;83.61
71976;BME280;60680;52.182;5.398;2022-11-20T06:00:34;101265.94;;;-3.31;84.48
71976;BME280;60680;52.182;5.398;2022-11-20T06:03:01;101260.78;;;-3.37;84.45
71976;BME280;60680;52.182;5.398;2022-11-20T06:05:28;101274.31;;;-3.39;83.82
71976;BME280;60680;52.182;5.398;2022-11-20T06:07:54;101272.56;;;-3.43;83.94
71976;BME280;60680;52.182;5.398;2022-11-20T06:10:21;101270.00;;;-3.43;84.42
71976;BME280;60680;52.182;5.398;2022-11-20T06:12:47;101275.13;;;-3.40;83.54
71976;BME280;60680;52.182;5.398;2022-11-20T06:15:13;101285.31;;;-3.42;83.96
71976;BME280;60680;52.182;5.398;2022-11-20T06:17:40;101275.09;;;-3.43;84.26
71976;BME280;60680;52.182;5.398;2022-11-20T06:20:07;101284.47;;;-3.39;84.36
71976;BME280;60680;52.182;5.398;2022-11-20T06:22:33;101285.34;;;-3.37;84.91
71976;BME280;60680;52.182;5.398;2022-11-20T06:24:59;101286.25;;;-3.35;83.85
71976;BME280;60680;52.182;5.398;2022-11-20T06:27:26;101276.06;;;-3.35;84.07
71976;BME280;60680;52.182;5.398;2022-11-20T06:29:53;101276.06;;;-3.35;84.24
71976;BME280;60680;52.182;5.398;2022-11-20T06:32:19;101271.78;;;-3.36;83.68
71976;BME280;60680;52.182;5.398;2022-11-20T06:34:46;101276.91;;;-3.35;84.00
71976;BME280;60680;52.182;5.398;2022-11-20T06:37:12;101276.94;;;-3.33;84.58
71976;BME280;60680;52.182;5.398;2022-11-20T06:39:39;101282.00;;;-3.35;83.99
71976;BME280;60680;52.182;5.398;2022-11-20T06:42:05;101271.78;;;-3.38;84.58
71976;BME280;60680;52.182;5.398;2022-11-20T06:44:31;101275.13;;;-3.40;84.01
71976;BME280;60680;52.182;5.398;2022-11-20T06:46:59;101281.00;;;-3.46;84.13
71976;BME280;60680;52.182;5.398;2022-11-20T06:49:25;101282.66;;;-3.46;84.80
71976;BME280;60680;52.182;5.398;2022-11-20T06:51:52;101271.69;;;-3.42;83.88
71976;BME280;60680;52.182;5.398;2022-11-20T06:54:18;101273.47;;;-3.38;84.09
71976;BME280;60680;52.182;5.398;2022-11-20T06:56:48;101270.09;;;-3.37;84.21
71976;BME280;60680;52.182;5.398;2022-11-20T06:59:14;101270.97;;;-3.35;84.00
71976;BME280;60680;52.182;5.398;2022-11-20T07:01:41;101270.13;;;-3.36;84.69
71976;BME280;60680;52.182;5.398;2022-11-20T07:04:07;101267.59;;;-3.36;85.13
71976;BME280;60680;52.182;5.398;2022-11-20T07:06:34;101262.50;;;-3.34;84.32
71976;BME280;60680;52.182;5.398;2022-11-20T07:09:00;101259.09;;;-3.35;84.67
71976;BME280;60680;52.182;5.398;2022-11-20T07:11:27;101257.41;;;-3.36;84.32
71976;BME280;60680;52.182;5.398;2022-11-20T07:13:54;101260.78;;;-3.37;84.41
71976;BME280;60680;52.182;5.398;2022-11-20T07:16:20;101255.69;;;-3.37;84.45
71976;BME280;60680;52.182;5.398;2022-11-20T07:18:46;101259.06;;;-3.36;84.13
71976;BME280;60680;52.182;5.398;2022-11-20T07:21:16;101256.53;;;-3.36;84.18
71976;BME280;60680;52.182;5.398;2022-11-20T07:23:42;101258.19;;;-3.38;84.58
71976;BME280;60680;52.182;5.398;2022-11-20T07:26:10;101258.19;;;-3.38;84.16
71976;BME280;60680;52.182;5.398;2022-11-20T07:28:38;101262.50;;;-3.36;85.31
71976;BME280;60680;52.182;5.398;2022-11-20T07:31:05;101249.78;;;-3.34;84.03
71976;BME280;60680;52.182;5.398;2022-11-20T07:33:33;101238.78;;;-3.33;84.72
71976;BME280;60680;52.182;5.398;2022-11-20T07:36:00;101239.59;;;-3.36;85.10
71976;BME280;60680;52.182;5.398;2022-11-20T07:38:27;101237.84;;;-3.38;84.06
71976;BME280;60680;52.182;5.398;2022-11-20T07:40:54;101237.03;;;-3.34;84.62
71976;BME280;60680;52.182;5.398;2022-11-20T07:43:21;101234.56;;;-3.30;85.17
71976;BME280;60680;52.182;5.398;2022-11-20T07:45:48;101226.13;;;-3.27;84.29
71976;BME280;60680;52.182;5.398;2022-11-20T07:48:14;101238.84;;;-3.25;84.66
71976;BME280;60680;52.182;5.398;2022-11-20T07:50:41;101241.44;;;-3.24;84.90
71976;BME280;60680;52.182;5.398;2022-11-20T07:53:07;101247.38;;;-3.22;85.15
71976;BME280;60680;52.182;5.398;2022-11-20T07:55:34;101254.19;;;-3.19;84.53
71976;BME280;60680;52.182;5.398;2022-11-20T07:58:00;101246.63;;;-3.15;84.75
71976;BME280;60680;52.182;5.398;2022-11-20T08:00:27;101249.25;;;-3.10;84.87
71976;BME280;60680;52.182;5.398;2022-11-20T08:02:54;101253.50;;;-3.06;85.03
71976;BME280;60680;52.182;5.398;2022-11-20T08:05:21;101253.56;;;-3.03;84.27
71976;BME280;60680;52.182;5.398;2022-11-20T08:07:48;101243.41;;;-3.00;85.04
71976;BME280;60680;52.182;5.398;2022-11-20T08:10:15;101234.97;;;-2.97;84.70
71976;BME280;60680;52.182;5.398;2022-11-20T08:12:50;101232.47;;;-2.91;84.78
71976;BME280;60680;52.182;5.398;2022-11-20T08:15:39;101227.38;;;-2.91;84.58
71976;BME280;60680;52.182;5.398;2022-11-20T08:18:12;101231.66;;;-2.87;84.50
71976;BME280;60680;52.182;5.398;2022-11-20T08:21:06;101237.69;;;-2.79;84.74
71976;BME280;60680;52.182;5.398;2022-11-20T08:23:37;101233.53;;;-2.71;84.67
71976;BME280;60680;52.182;5.398;2022-11-20T08:26:07;101218.31;;;-2.64;84.89
71976;BME280;60680;52.182;5.398;2022-11-20T08:28:34;101222.59;;;-2.62;85.06
71976;BME280;60680;52.182;5.398;2022-11-20T08:31:01;101223.47;;;-2.58;85.85
71976;BME280;60680;52.182;5.398;2022-11-20T08:33:29;101217.56;;;-2.56;85.35
71976;BME280;60680;52.182;5.398;2022-11-20T08:36:00;101221.81;;;-2.53;84.87
71976;BME280;60680;52.182;5.398;2022-11-20T08:38:27;101227.78;;;-2.53;85.65
71976;BME280;60680;52.182;5.398;2022-11-20T08:41:01;101227.84;;;-2.48;85.13
71976;BME280;60680;52.182;5.398;2022-11-20T08:43:47;101230.38;;;-2.47;85.70
71976;BME280;60680;52.182;5.398;2022-11-20T08:46:13;101233.78;;;-2.44;85.37
71976;BME280;60680;52.182;5.398;2022-11-20T08:48:40;101226.16;;;-2.43;85.94
71976;BME280;60680;52.182;5.398;2022-11-20T08:51:07;101232.13;;;-2.41;86.49
71976;BME280;60680;52.182;5.398;2022-11-20T08:53:33;101224.53;;;-2.36;86.27
71976;BME280;60680;52.182;5.398;2022-11-20T08:56:00;101227.09;;;-2.32;86.58
71976;BME280;60680;52.182;5.398;2022-11-20T08:58:27;101222.06;;;-2.29;85.93
71976;BME280;60680;52.182;5.398;2022-11-20T09:00:53;101218.66;;;-2.26;86.62
71976;BME280;60680;52.182;5.398;2022-11-20T09:03:20;101217.00;;;-2.22;85.49
71976;BME280;60680;52.182;5.398;2022-11-20T09:05:46;101217.91;;;-2.19;85.98
71976;BME280;60680;52.182;5.398;2022-11-20T09:08:13;101217.91;;;-2.16;85.76
71976;BME280;60680;52.182;5.398;2022-11-20T09:10:39;101211.13;;;-2.14;86.46
71976;BME280;60680;52.182;5.398;2022-11-20T09:13:06;101205.22;;;-2.10;86.74
71976;BME280;60680;52.182;5.398;2022-11-20T09:15:33;101209.50;;;-2.06;86.41
71976;BME280;60680;52.182;5.398;2022-11-20T09:18:01;101206.97;;;-2.02;85.96
71976;BME280;60680;52.182;5.398;2022-11-20T09:20:29;101199.34;;;-1.98;86.86
71976;BME280;60680;52.182;5.398;2022-11-20T09:22:57;101195.97;;;-1.95;86.95
71976;BME280;60680;52.182;5.398;2022-11-20T09:25:24;101197.69;;;-1.91;86.93
71976;BME280;60680;52.182;5.398;2022-11-20T09:27:58;101189.19;;;-1.87;86.94
71976;BME280;60680;52.182;5.398;2022-11-20T09:30:25;101187.53;;;-1.83;86.33
71976;BME280;60680;52.182;5.398;2022-11-20T09:32:52;101178.22;;;-1.80;86.13
71976;BME280;60680;52.182;5.398;2022-11-20T09:35:18;101169.72;;;-1.76;86.34
71976;BME280;60680;52.182;5.398;2022-11-20T09:37:45;101174.84;;;-1.71;86.41
71976;BME280;60680;52.182;5.398;2022-11-20T09:40:28;101169.78;;;-1.67;86.85
71976;BME280;60680;52.182;5.398;2022-11-20T09:43:13;101166.41;;;-1.58;85.69
71976;BME280;60680;52.182;5.398;2022-11-20T09:48:40;101155.41;;;-1.43;85.43
71976;BME280;60680;52.182;5.398;2022-11-20T09:54:35;101156.31;;;-1.32;86.29
71976;BME280;60680;52.182;5.398;2022-11-20T09:56:40;101167.41;;;-1.25;86.21
71976;BME280;60680;52.182;5.398;2022-11-20T09:59:21;101156.34;;;-1.21;85.32
71976;BME280;60680;52.182;5.398;2022-11-20T10:01:49;101156.38;;;-1.16;86.58
71976;BME280;60680;52.182;5.398;2022-11-20T10:04:18;101153.81;;;-1.12;86.08
71976;BME280;60680;52.182;5.398;2022-11-20T10:09:55;101141.94;;;-1.04;85.99
71976;BME280;60680;52.182;5.398;2022-11-20T10:15:33;101136.00;;;-0.93;85.86
71976;BME280;60680;52.182;5.398;2022-11-20T10:23:37;101124.09;;;-0.74;86.51
71976;BME280;60680;52.182;5.398;2022-11-20T10:26:22;101122.38;;;-0.65;85.63
71976;BME280;60680;52.182;5.398;2022-11-20T10:29:14;101114.72;;;-0.52;85.72
71976;BME280;60680;52.182;5.398;2022-11-20T10:31:55;101100.22;;;-0.44;85.93
71976;BME280;60680;52.182;5.398;2022-11-20T10:34:27;101107.03;;;-0.40;85.73
71976;BME280;60680;52.182;5.398;2022-11-20T10:37:00;101103.63;;;-0.37;85.74
71976;BME280;60680;52.182;5.398;2022-11-20T10:39:35;101089.13;;;-0.32;86.50
71976;BME280;60680;52.182;5.398;2022-11-20T10:42:08;101092.50;;;-0.26;85.89
71976;BME280;60680;52.182;5.398;2022-11-20T10:44:39;101085.72;;;-0.19;86.02
71976;BME280;60680;52.182;5.398;2022-11-20T10:47:32;101081.41;;;-0.15;85.57
71976;BME280;60680;52.182;5.398;2022-11-20T10:50:05;101076.31;;;-0.12;86.94
71976;BME280;60680;52.182;5.398;2022-11-20T11:00:26;101060.06;;;-0.05;87.12
71976;BME280;60680;52.182;5.398;2022-11-20T11:02:53;101054.09;;;-0.03;87.07
71976;BME280;60680;52.182;5.398;2022-11-20T11:05:35;101064.34;;;0.01;87.36
71976;BME280;60680;52.182;5.398;2022-11-20T11:08:03;101054.06;;;0.02;87.90
71976;BME280;60680;52.182;5.398;2022-11-20T11:10:51;101041.28;;;0.05;87.22
71976;BME280;60680;52.182;5.398;2022-11-20T11:15:46;101039.56;;;0.10;88.17
71976;BME280;60680;52.182;5.398;2022-11-20T11:18:26;101036.13;;;0.14;88.57
71976;BME280;60680;52.182;5.398;2022-11-20T11:20:54;101022.50;;;0.14;88.34
71976;BME280;60680;52.182;5.398;2022-11-20T11:23:39;101026.72;;;0.16;88.01
71976;BME280;60680;52.182;5.398;2022-11-20T11:26:21;101019.06;;;0.16;88.46
71976;BME280;60680;52.182;5.398;2022-11-20T11:28:55;101002.00;;;0.20;89.49
71976;BME280;60680;52.182;5.398;2022-11-20T11:31:23;101001.13;;;0.23;88.68
71976;BME280;60680;52.182;5.398;2022-11-20T11:33:50;100990.88;;;0.26;88.86
71976;BME280;60680;52.182;5.398;2022-11-20T11:36:19;100978.91;;;0.31;90.16
71976;BME280;60680;52.182;5.398;2022-11-20T11:38:51;100991.66;;;0.35;88.84
71976;BME280;60680;52.182;5.398;2022-11-20T11:41:38;100983.09;;;0.38;90.05
71976;BME280;60680;52.182;5.398;2022-11-20T11:44:20;100979.72;;;0.40;89.97
71976;BME280;60680;52.182;5.398;2022-11-20T11:47:12;100977.13;;;0.42;90.25
71976;BME280;60680;52.182;5.398;2022-11-20T11:49:45;100970.31;;;0.43;91.21
71976;BME280;60680;52.182;5.398;2022-11-20T11:57:24;100960.88;;;0.49;91.22
71976;BME280;60680;52.182;5.398;2022-11-20T12:00:12;100952.28;;;0.56;91.69
71976;BME280;60680;52.182;5.398;2022-11-20T12:05:18;100946.28;;;0.62;92.29
71976;BME280;60680;52.182;5.398;2022-11-20T12:07:51;100940.28;;;0.63;92.68
71976;BME280;60680;52.182;5.398;2022-11-20T12:10:55;100936.81;;;0.67;93.09
71976;BME280;60680;52.182;5.398;2022-11-20T12:16:20;100921.38;;;0.76;94.47
71976;BME280;60680;52.182;5.398;2022-11-20T12:18:51;100915.34;;;0.82;94.37
71976;BME280;60680;52.182;5.398;2022-11-20T12:30:09;100910.94;;;0.98;94.36
71976;BME280;60680;52.182;5.398;2022-11-20T12:37:55;100909.19;;;1.05;95.32
71976;BME280;60680;52.182;5.398;2022-11-20T12:43:36;100900.59;;;1.06;95.66
71976;BME280;60680;52.182;5.398;2022-11-20T12:46:46;100887.78;;;1.09;95.68
71976;BME280;60680;52.182;5.398;2022-11-20T12:49:26;100882.59;;;1.12;96.19
71976;BME280;60680;52.182;5.398;2022-11-20T13:08:24;100826.84;;;1.31;97.84
71976;BME280;60680;52.182;5.398;2022-11-20T13:16:18;100811.47;;;1.32;96.63
71976;BME280;60680;52.182;5.398;2022-11-20T13:18:50;100802.91;;;1.32;97.99
71976;BME280;60680;52.182;5.398;2022-11-20T13:21:21;100799.50;;;1.33;97.20
71976;BME280;60680;52.182;5.398;2022-11-20T13:23:48;100787.53;;;1.32;97.28
71976;BME280;60680;52.182;5.398;2022-11-20T13:26:18;100800.34;;;1.33;97.36
71976;BME280;60680;52.182;5.398;2022-11-20T13:28:47;100794.34;;;1.34;98.29
71976;BME280;60680;52.182;5.398;2022-11-20T13:31:35;100782.38;;;1.36;97.78
71976;BME280;60680;52.182;5.398;2022-11-20T13:34:04;100784.06;;;1.36;97.77
71976;BME280;60680;52.182;5.398;2022-11-20T13:36:32;100784.06;;;1.36;97.30
71976;BME280;60680;52.182;5.398;2022-11-20T13:39:01;100788.34;;;1.35;97.34
71976;BME280;60680;52.182;5.398;2022-11-20T13:41:35;100788.34;;;1.37;97.23
71976;BME280;60680;52.182;5.398;2022-11-20T13:44:14;100790.06;;;1.36;98.01
71976;BME280;60680;52.182;5.398;2022-11-20T13:46:44;100784.06;;;1.36;97.96
71976;BME280;60680;52.182;5.398;2022-11-20T13:49:37;100775.50;;;1.38;98.15
71976;BME280;60680;52.182;5.398;2022-11-20T13:55:16;100762.69;;;1.38;97.45
71976;BME280;60680;52.182;5.398;2022-11-20T13:58:01;100749.81;;;1.40;97.67
71976;BME280;60680;52.182;5.398;2022-11-20T14:00:31;100745.56;;;1.39;97.57
71976;BME280;60680;52.182;5.398;2022-11-20T14:03:18;100745.56;;;1.40;97.90
71976;BME280;60680;52.182;5.398;2022-11-20T14:06:12;100737.00;;;1.41;98.50
71976;BME280;60680;52.182;5.398;2022-11-20T14:08:44;100750.66;;;1.42;98.32
71976;BME280;60680;52.182;5.398;2022-11-20T14:11:20;100748.06;;;1.43;98.81
71976;BME280;60680;52.182;5.398;2022-11-20T14:14:03;100743.78;;;1.44;98.07
71976;BME280;60680;52.182;5.398;2022-11-20T14:16:36;100737.81;;;1.45;98.70
71976;BME280;60680;52.182;5.398;2022-11-20T14:22:10;100704.41;;;1.50;99.20
71976;BME280;60680;52.182;5.398;2022-11-20T14:24:37;100694.13;;;1.50;98.42
71976;BME280;60680;52.182;5.398;2022-11-20T14:27:04;100688.13;;;1.51;99.30
71976;BME280;60680;52.182;5.398;2022-11-20T14:29:35;100679.59;;;1.52;99.15
71976;BME280;60680;52.182;5.398;2022-11-20T14:32:03;100683.81;;;1.53;99.45
71976;BME280;60680;52.182;5.398;2022-11-20T14:34:31;100680.41;;;1.54;98.98
71976;BME280;60680;52.182;5.398;2022-11-20T14:37:00;100691.50;;;1.54;98.76